Time;durP1;ratioP1;P1;durP2;ratioP2;P2;SDS_P1;SDS_P2;PMS_P1;PMS_P2;Temp;Humidity;BMP_temperature;BMP_pressure;BME280_temperature;BME280_humidity;BME280_pressure;Samples;Min_cycle;Max_cycle;Signal;HPM_P1;HPM_P2
2022/04/01 00:00:26;;;;;;;12.68;9.15;;;;;;;0.00;100.00;100234.56;5112310;27;20073;-76
2022/04/01 00:02:51;;;;;;;12.43;9.88;;;;;;;-0.04;100.00;100225.97;5130692;27;20023;-76
2022/04/01 00:05:16;;;;;;;14.93;10.00;;;;;;;-0.05;100.00;100233.66;5115893;27;20458;-75
2022/04/01 00:07:42;;;;;;;13.70;10.40;;;;;;;-0.04;100.00;100235.38;5118752;27;20035;-76
2022/04/01 00:10:08;;;;;;;12.05;9.27;;;;;;;-0.06;100.00;100225.13;5114523;28;20387;-76
2022/04/01 00:12:38;;;;;;;13.95;10.27;;;;;;;-0.08;100.00;100236.19;5132330;27;20031;-76
2022/04/01 00:15:05;;;;;;;12.10;8.98;;;;;;;-0.06;100.00;100237.06;5121051;27;20034;-76
2022/04/01 00:17:30;;;;;;;9.50;7.15;;;;;;;-0.08;100.00;100237.03;5125898;27;20035;-76
2022/04/01 00:19:55;;;;;;;8.80;7.43;;;;;;;-0.09;100.00;100232.78;5131914;27;20042;-75
2022/04/01 00:22:21;;;;;;;10.18;7.10;;;;;;;-0.01;100.00;100243.09;5123170;27;20379;-76
2022/04/01 00:24:46;;;;;;;11.00;6.95;;;;;;;-0.07;100.00;100245.59;5115620;28;20023;-76
2022/04/01 00:27:11;;;;;;;8.48;7.28;;;;;;;-0.14;100.00;100251.50;5132187;27;20023;-76
2022/04/01 00:29:37;;;;;;;10.20;7.82;;;;;;;-0.24;100.00;100250.53;5113195;27;20105;-76
2022/04/01 00:32:02;;;;;;;10.45;6.90;;;;;;;-0.36;100.00;100250.38;5119486;27;20502;-76
2022/04/01 00:34:30;;;;;;;8.55;6.78;;;;;;;-0.41;100.00;100255.47;5111279;28;20028;-76
2022/04/01 00:36:56;;;;;;;9.40;7.13;;;;;;;-0.50;100.00;100265.59;5110997;28;20031;-76
2022/04/01 00:39:23;;;;;;;7.25;5.97;;;;;;;-0.53;100.00;100252.75;5112075;28;20020;-76
2022/04/01 00:41:49;;;;;;;10.65;7.68;;;;;;;-0.56;100.00;100252.72;5129432;27;20023;-76
2022/04/01 00:44:22;;;;;;;10.27;6.80;;;;;;;-0.53;100.00;100274.09;5130868;27;20126;-75
2022/04/01 00:46:51;;;;;;;8.75;6.88;;;;;;;-0.55;100.00;100267.25;5130116;27;20031;-76
2022/04/01 00:49:18;;;;;;;10.00;7.13;;;;;;;-0.59;100.00;100262.91;5126654;28;20486;-76
2022/04/01 00:51:45;;;;;;;10.98;7.57;;;;;;;-0.60;100.00;100276.56;5115581;28;20164;-75
2022/04/01 00:54:11;;;;;;;9.35;7.03;;;;;;;-0.54;100.00;100276.66;5113004;27;20395;-75
2022/04/01 00:56:37;;;;;;;12.65;7.43;;;;;;;-0.58;100.00;100274.91;5111572;28;20048;-75
2022/04/01 00:59:03;;;;;;;10.48;7.63;;;;;;;-0.60;100.00;100274.88;5111118;28;20129;-75
2022/04/01 01:01:31;;;;;;;10.52;7.55;;;;;;;-0.67;100.00;100267.97;5114842;27;20431;-75
2022/04/01 01:04:07;;;;;;;11.27;7.70;;;;;;;-0.62;100.00;100285.91;5128629;27;20028;-75
2022/04/01 01:06:37;;;;;;;9.88;7.47;;;;;;;-0.74;100.00;100258.47;5110526;28;20352;-75
2022/04/01 01:09:03;;;;;;;13.25;8.00;;;;;;;-0.69;100.00;100276.44;5111777;28;20100;-75
2022/04/01 01:11:29;;;;;;;13.90;8.52;;;;;;;-0.73;100.00;100275.56;5112858;28;20020;-75
2022/04/01 01:13:54;;;;;;;13.00;8.15;;;;;;;-0.75;100.00;100275.53;5119352;27;20026;-75
2022/04/01 01:16:20;;;;;;;11.00;7.65;;;;;;;-0.72;100.00;100280.72;5095570;28;20475;-75
2022/04/01 01:18:59;;;;;;;10.65;6.95;;;;;;;-0.74;100.00;100277.25;5108859;28;20375;-75
2022/04/01 01:21:26;;;;;;;10.45;7.53;;;;;;;-0.70;100.00;100280.72;5097053;28;20089;-75
2022/04/01 01:23:51;;;;;;;11.70;7.78;;;;;;;-0.68;100.00;100278.19;5112095;28;20023;-75
2022/04/01 01:26:16;;;;;;;11.25;7.57;;;;;;;-0.69;100.00;100271.31;5097379;28;20178;-76
2022/04/01 01:28:42;;;;;;;10.20;7.32;;;;;;;-0.62;100.00;100279.13;5094323;28;20471;-75
2022/04/01 01:31:07;;;;;;;11.93;7.30;;;;;;;-0.63;100.00;100277.38;5095646;28;20035;-75
2022/04/01 01:33:33;;;;;;;9.63;7.20;;;;;;;-0.64;100.00;100282.50;5101021;28;20036;-75
2022/04/01 01:35:58;;;;;;;9.02;6.50;;;;;;;-0.61;100.00;100279.97;5106544;28;20060;-76
2022/04/01 01:38:24;;;;;;;10.50;7.93;;;;;;;-0.66;100.00;100282.47;5123961;27;20027;-75
2022/04/01 01:40:50;;;;;;;9.68;6.88;;;;;;;-0.64;100.00;100279.94;5132520;27;20103;-76
2022/04/01 01:43:15;;;;;;;10.45;6.90;;;;;;;-0.61;100.00;100282.53;5133337;27;20106;-76
2022/04/01 01:45:40;;;;;;;9.68;7.45;;;;;;;-0.65;100.00;100278.22;5132624;27;20531;-76
2022/04/01 01:48:05;;;;;;;12.38;7.18;;;;;;;-0.61;100.00;100285.09;5114142;28;20441;-76
2022/04/01 01:55:59;;;;;;;9.50;6.68;;;;;;;-0.62;100.00;100291.03;5113454;28;20038;-76
2022/04/01 01:58:24;;;;;;;9.80;7.07;;;;;;;-0.61;100.00;100291.06;5115542;27;20024;-76
2022/04/01 02:00:49;;;;;;;8.63;6.72;;;;;;;-0.61;100.00;100298.75;5114634;27;20055;-76
2022/04/01 02:03:14;;;;;;;9.82;7.03;;;;;;;-0.61;100.00;100297.91;5122828;27;20428;-77
2022/04/01 02:05:40;;;;;;;9.35;6.75;;;;;;;-0.61;100.00;100300.47;5132651;27;20020;-76
2022/04/01 02:08:05;;;;;;;10.40;8.00;;;;;;;-0.64;100.00;100300.41;5118052;27;20491;-76
2022/04/01 02:10:32;;;;;;;11.77;7.53;;;;;;;-0.65;100.00;100303.84;5117174;27;20031;-76
2022/04/01 02:12:58;;;;;;;10.43;7.03;;;;;;;-0.63;100.00;100304.69;5130663;27;20050;-76
2022/04/01 02:15:24;;;;;;;9.85;7.35;;;;;;;-0.61;100.00;100300.47;5118305;27;20462;-76
2022/04/01 02:17:50;;;;;;;9.13;6.72;;;;;;;-0.60;100.00;100291.94;5114075;28;20107;-76
2022/04/01 02:20:15;;;;;;;10.98;7.47;;;;;;;-0.58;100.00;100295.38;5118432;27;20107;-76
2022/04/01 02:22:40;;;;;;;8.82;6.85;;;;;;;-0.54;100.00;100299.69;5129268;27;20030;-76
2022/04/01 02:25:07;;;;;;;10.35;7.05;;;;;;;-0.61;100.00;100303.03;5121317;27;20518;-76
2022/04/01 02:27:34;;;;;;;9.52;6.55;;;;;;;-0.56;100.00;100306.50;5122481;27;20058;-76
2022/04/01 02:30:00;;;;;;;9.23;6.70;;;;;;;-0.60;100.00;100309.84;5128394;27;20478;-76
2022/04/01 02:32:26;;;;;;;10.00;7.32;;;;;;;-0.61;100.00;100318.38;5132579;27;20019;-76
2022/04/01 02:34:51;;;;;;;10.43;7.50;;;;;;;-0.64;100.00;100315.78;5118805;27;20023;-76
2022/04/01 02:37:25;;;;;;;10.55;7.40;;;;;;;-0.63;100.00;100332.84;5128697;27;20386;-76
2022/04/01 02:39:50;;;;;;;9.27;7.22;;;;;;;-0.66;100.00;100337.94;5113385;27;20402;-77
2022/04/01 02:42:15;;;;;;;10.95;7.13;;;;;;;-0.61;100.00;100334.59;5123895;27;20038;-76
2022/04/01 02:44:41;;;;;;;9.38;7.07;;;;;;;-0.61;100.00;100326.91;5131190;27;20027;-76
2022/04/01 02:47:07;;;;;;;9.95;7.57;;;;;;;-0.57;100.00;100330.38;5117826;27;20482;-77
2022/04/01 02:49:32;;;;;;;11.20;7.43;;;;;;;-0.56;100.00;100329.53;5113131;27;20047;-77
2022/04/01 02:51:57;;;;;;;12.52;8.40;;;;;;;-0.59;100.00;100340.63;5112443;28;20110;-76
2022/04/01 02:54:23;;;;;;;11.80;7.72;;;;;;;-0.61;100.00;100342.28;5123063;27;20066;-76
2022/04/01 02:56:48;;;;;;;10.23;7.18;;;;;;;-0.61;100.00;100347.41;5113146;28;20360;-77
2022/04/01 02:59:14;;;;;;;9.77;7.70;;;;;;;-0.64;100.00;100354.19;5112308;28;20076;-76
2022/04/01 03:01:41;;;;;;;9.93;7.63;;;;;;;-0.69;100.00;100354.09;5125126;27;20079;-77
2022/04/01 03:04:09;;;;;;;8.68;6.70;;;;;;;-0.68;100.00;100350.72;5121928;27;20035;-76
2022/04/01 03:06:38;;;;;;;10.60;7.50;;;;;;;-0.68;100.00;100360.97;5133339;27;20035;-76
2022/04/01 03:09:04;;;;;;;9.77;7.30;;;;;;;-0.73;100.00;100360.03;5133418;27;20019;-76
2022/04/01 03:11:30;;;;;;;10.40;7.57;;;;;;;-0.76;100.00;100363.38;5115401;27;20043;-76
2022/04/01 03:13:55;;;;;;;9.80;7.68;;;;;;;-0.78;100.00;100354.00;5126486;27;20039;-77
2022/04/01 03:16:22;;;;;;;9.15;7.22;;;;;;;-0.79;100.00;100357.38;5118584;27;20068;-76
2022/04/01 03:18:47;;;;;;;13.63;10.25;;;;;;;-0.73;100.00;100368.56;5132638;27;20106;-76
2022/04/01 03:21:12;;;;;;;9.63;7.75;;;;;;;-0.75;100.00;100364.28;5119713;27;20149;-76
2022/04/01 03:23:39;;;;;;;10.85;7.38;;;;;;;-0.80;100.00;100371.00;5121885;27;20028;-76
2022/04/01 03:26:05;;;;;;;11.65;8.40;;;;;;;-0.78;100.00;100377.03;5132051;27;20023;-76
2022/04/01 03:28:30;;;;;;;12.20;9.02;;;;;;;-0.82;100.00;100376.13;5121848;27;20497;-76
2022/04/01 03:30:56;;;;;;;12.43;8.82;;;;;;;-0.78;100.00;100377.03;5113620;27;20535;-77
2022/04/01 03:33:21;;;;;;;13.38;8.40;;;;;;;-0.80;100.00;100376.13;5112065;27;20024;-76
2022/04/01 03:35:47;;;;;;;13.13;9.25;;;;;;;-0.79;100.00;100390.63;5132452;27;20023;-76
2022/04/01 03:38:12;;;;;;;12.75;9.15;;;;;;;-0.82;100.00;100394.03;5123772;27;20081;-76
2022/04/01 03:40:40;;;;;;;13.15;9.57;;;;;;;-0.82;100.00;100391.47;5123569;27;20094;-76
2022/04/01 03:43:08;;;;;;;13.73;9.38;;;;;;;-0.83;100.00;100392.28;5131549;27;20110;-76
2022/04/01 03:45:35;;;;;;;14.93;9.88;;;;;;;-0.87;100.00;100395.66;5114573;27;20463;-76
2022/04/01 03:48:06;;;;;;;14.85;10.25;;;;;;;-0.88;100.00;100393.06;5127821;27;20038;-76
2022/04/01 03:50:34;;;;;;;15.82;10.73;;;;;;;-0.89;100.00;100397.31;5132036;27;20035;-75
2022/04/01 03:53:05;;;;;;;14.85;9.90;;;;;;;-0.88;100.00;100401.63;5132916;27;20031;-76
2022/04/01 03:55:33;;;;;;;15.43;11.13;;;;;;;-0.90;100.00;100393.03;5114372;27;20171;-76
2022/04/01 03:58:08;;;;;;;16.75;11.93;;;;;;;-0.87;100.00;100410.16;5132405;27;20027;-76
2022/04/01 04:00:33;;;;;;;14.77;10.82;;;;;;;-0.89;100.00;100405.00;5124941;27;20498;-76
2022/04/01 04:02:59;;;;;;;16.80;9.60;;;;;;;-0.91;100.00;100413.50;5114144;27;20123;-75
2022/04/01 04:05:27;;;;;;;15.77;11.20;;;;;;;-0.94;100.00;100409.19;5115033;27;20440;-75
2022/04/01 04:07:53;;;;;;;14.50;9.48;;;;;;;-0.96;100.00;100431.31;5113271;27;20028;-76
2022/04/01 04:10:19;;;;;;;14.63;10.10;;;;;;;-0.92;100.00;100419.44;5112083;28;20387;-75
2022/04/01 04:12:44;;;;;;;15.55;10.90;;;;;;;-0.94;100.00;100419.44;5111904;28;20039;-75
2022/04/01 04:15:10;;;;;;;14.80;10.18;;;;;;;-1.00;100.00;100425.28;5120390;27;20038;-76
2022/04/01 04:17:46;;;;;;;14.65;10.35;;;;;;;-0.96;100.00;100437.28;5117148;27;20057;-76
2022/04/01 04:20:18;;;;;;;14.82;11.18;;;;;;;-0.92;100.00;100438.22;5114096;27;20042;-76
2022/04/01 04:23:10;;;;;;;13.27;9.45;;;;;;;-0.97;100.00;100440.69;5131130;28;20046;-75
2022/04/01 04:25:37;;;;;;;14.32;9.52;;;;;;;-0.86;100.00;100447.69;5120749;27;20036;-76
2022/04/01 04:28:10;;;;;;;13.32;9.75;;;;;;;-0.92;100.00;100448.44;5112979;28;20023;-76
2022/04/01 04:30:50;;;;;;;15.43;10.25;;;;;;;-1.00;100.00;100434.69;5112653;28;20107;-76
2022/04/01 04:33:17;;;;;;;13.20;9.32;;;;;;;-0.89;100.00;100451.06;5129281;27;20031;-75
2022/04/01 04:35:48;;;;;;;16.83;9.90;;;;;;;-0.92;100.00;100463.81;5126017;28;20382;-76
2022/04/01 04:38:14;;;;;;;15.15;10.45;;;;;;;-0.92;100.00;100453.56;5128619;27;20043;-76
2022/04/01 04:40:41;;;;;;;12.27;9.73;;;;;;;-0.89;100.00;100468.97;5129846;27;20429;-76
2022/04/01 04:43:08;;;;;;;14.30;9.65;;;;;;;-0.87;100.00;100467.31;5111495;28;20016;-76
2022/04/01 04:45:34;;;;;;;12.65;9.63;;;;;;;-0.88;100.00;100483.50;5114429;27;20551;-77
2022/04/01 04:48:01;;;;;;;14.65;9.65;;;;;;;-0.88;100.00;100475.84;5120773;27;20507;-76
2022/04/01 04:50:27;;;;;;;12.73;9.55;;;;;;;-0.85;100.00;100481.00;5133614;27;20020;-76
2022/04/01 04:52:54;;;;;;;13.27;9.82;;;;;;;-0.90;100.00;100492.84;5135842;27;20035;-76
2022/04/01 04:55:21;;;;;;;14.63;9.82;;;;;;;-0.85;100.00;100495.47;5135800;27;20028;-76
2022/04/01 04:57:48;;;;;;;14.15;9.98;;;;;;;-0.86;100.00;100509.97;5130574;27;20032;-76
2022/04/01 05:00:19;;;;;;;13.63;10.15;;;;;;;-0.89;100.00;100504.81;5135879;27;20094;-76
2022/04/01 05:03:19;;;;;;;15.35;10.43;;;;;;;-0.87;100.00;100515.94;5131068;27;20039;-76
2022/04/01 05:05:51;;;;;;;14.63;9.38;;;;;;;-0.84;100.00;100508.31;5106883;27;20054;-76
2022/04/01 05:08:46;;;;;;;13.48;9.75;;;;;;;-0.79;100.00;100527.16;5130602;27;20111;-76
2022/04/01 05:11:22;;;;;;;14.40;9.25;;;;;;;-0.84;100.00;100522.81;5114672;27;20372;-76
2022/04/01 05:14:05;;;;;;;12.93;8.73;;;;;;;-0.82;100.00;100526.25;5116209;27;20099;-76
2022/04/01 05:16:31;;;;;;;12.45;8.55;;;;;;;-0.83;100.00;100527.94;5117692;27;20031;-76
2022/04/01 05:19:12;;;;;;;14.55;9.40;;;;;;;-0.85;100.00;100537.31;5116202;27;20042;-76
2022/04/01 05:21:52;;;;;;;16.80;9.50;;;;;;;-0.83;100.00;100539.88;5121727;27;20075;-75
2022/04/01 05:24:25;;;;;;;12.10;8.73;;;;;;;-0.87;100.00;100543.22;5135589;27;20030;-76
2022/04/01 05:26:54;;;;;;;15.55;9.07;;;;;;;-0.82;100.00;100545.06;5117554;27;20106;-76
2022/04/01 05:29:27;;;;;;;11.40;8.63;;;;;;;-0.73;100.00;100540.06;5133422;27;20159;-76
2022/04/01 05:32:01;;;;;;;12.80;8.70;;;;;;;-0.80;100.00;100542.50;5123898;27;20028;-75
2022/04/01 05:34:38;;;;;;;13.90;9.25;;;;;;;-0.83;100.00;100550.97;5115106;28;20027;-77
2022/04/01 05:37:04;;;;;;;14.38;9.68;;;;;;;-0.83;100.00;100556.09;5134730;27;20389;-76
2022/04/01 05:39:30;;;;;;;12.88;10.05;;;;;;;-0.81;100.00;100554.44;5131529;27;20245;-76
2022/04/01 05:41:56;;;;;;;11.55;9.18;;;;;;;-0.79;100.00;100557.88;5124045;27;20031;-76
2022/04/01 05:44:23;;;;;;;12.95;8.05;;;;;;;-0.81;100.00;100561.25;5132200;27;20026;-77
2022/04/01 05:46:51;;;;;;;13.30;8.93;;;;;;;-0.78;100.00;100579.25;5114973;27;20031;-77
2022/04/01 05:49:18;;;;;;;14.73;9.43;;;;;;;-0.85;100.00;100577.38;5115300;27;20044;-76
2022/04/01 05:51:46;;;;;;;14.07;9.85;;;;;;;-0.86;100.00;100584.19;5115613;27;20034;-76
2022/04/01 05:54:14;;;;;;;14.27;9.52;;;;;;;-0.83;100.00;100580.84;5113968;27;20040;-77
2022/04/01 05:56:41;;;;;;;14.27;10.07;;;;;;;-0.79;100.00;100591.16;5113886;28;20118;-76
2022/04/01 05:59:06;;;;;;;14.77;9.38;;;;;;;-0.82;100.00;100598.81;5113957;28;20020;-76
2022/04/01 06:01:50;;;;;;;10.57;7.55;;;;;;;-0.77;100.00;100601.44;5124396;27;20075;-76
2022/04/01 06:04:36;;;;;;;14.40;8.27;;;;;;;-0.83;100.00;100601.31;5126352;27;20032;-77
2022/04/01 06:07:10;;;;;;;15.55;9.70;;;;;;;-0.82;100.00;100611.59;5113596;28;20123;-77
2022/04/01 06:09:39;;;;;;;13.18;9.80;;;;;;;-0.83;100.00;100617.53;5121984;27;20033;-76
2022/04/01 06:12:30;;;;;;;12.70;9.18;;;;;;;-0.75;100.00;100625.38;5101134;27;20029;-76
2022/04/01 06:15:34;;;;;;;13.98;9.18;;;;;;;-0.85;100.00;100623.44;5122551;27;20478;-76
2022/04/01 06:18:22;;;;;;;13.67;9.03;;;;;;;-0.83;100.00;100632.03;5093804;28;20028;-76
2022/04/01 06:20:49;;;;;;;13.48;9.13;;;;;;;-0.82;100.00;100634.63;5118860;27;20027;-76
2022/04/01 06:23:42;;;;;;;13.23;9.05;;;;;;;-0.81;100.00;100644.03;5131340;27;20382;-76
2022/04/01 06:26:11;;;;;;;13.88;9.40;;;;;;;-0.83;100.00;100637.16;5114177;27;20019;-76
2022/04/01 06:28:49;;;;;;;11.35;7.70;;;;;;;-0.84;100.00;100646.53;5113108;27;20163;-76
2022/04/01 06:31:20;;;;;;;13.07;8.38;;;;;;;-0.80;100.00;100653.44;5114855;27;20403;-76
2022/04/01 06:34:04;;;;;;;12.38;8.98;;;;;;;-0.83;100.00;100663.59;5125516;27;20031;-76
2022/04/01 06:36:40;;;;;;;11.18;7.95;;;;;;;-0.79;100.00;100675.63;5112669;28;20126;-77
2022/04/01 06:39:07;;;;;;;12.43;8.77;;;;;;;-0.83;100.00;100663.59;5114304;27;20054;-76
2022/04/01 06:41:41;;;;;;;10.95;7.75;;;;;;;-0.81;100.00;100674.75;5116011;27;20548;-76
2022/04/01 06:44:07;;;;;;;;;;;;;;;-0.70;100.00;100682.63;5130612;27;20027;-76
2022/04/01 06:46:32;;;;;;;10.80;7.82;;;;;;;-0.78;100.00;100679.94;5132277;27;19948;-76
2022/04/01 06:48:57;;;;;;;10.25;7.28;;;;;;;-0.82;100.00;100688.38;5123175;27;20052;-76
2022/04/01 06:51:23;;;;;;;11.13;7.82;;;;;;;-0.82;100.00;100695.19;5104662;28;20395;-76
2022/04/01 06:53:48;;;;;;;10.00;7.55;;;;;;;-0.85;100.00;100698.56;5092767;28;20052;-76
2022/04/01 06:56:13;;;;;;;12.85;7.10;;;;;;;-0.84;100.00;100696.84;5097197;27;20045;-76
2022/04/01 06:58:38;;;;;;;11.20;7.20;;;;;;;-0.88;100.00;100707.84;5112357;28;20028;-75
2022/04/01 07:01:04;;;;;;;12.43;7.45;;;;;;;-0.85;100.00;100705.34;5110651;28;20383;-76
2022/04/01 07:03:30;;;;;;;10.63;7.13;;;;;;;-0.83;100.00;100703.69;5109525;27;20670;-75
2022/04/01 07:05:56;;;;;;;9.43;6.90;;;;;;;-0.85;100.00;100721.59;5112101;28;20506;-75
2022/04/01 07:08:21;;;;;;;8.43;5.70;;;;;;;-0.81;100.00;100709.72;5092993;28;20115;-75
2022/04/01 07:10:47;;;;;;;8.70;6.53;;;;;;;-0.84;100.00;100713.06;5094018;28;20036;-76
2022/04/01 07:13:12;;;;;;;10.05;6.40;;;;;;;-0.87;100.00;100714.72;5105934;28;20056;-76
2022/04/01 07:15:38;;;;;;;12.55;6.65;;;;;;;-0.84;100.00;100720.75;5093547;28;20069;-75
2022/04/01 07:18:03;;;;;;;9.75;6.30;;;;;;;-0.81;100.00;100727.63;5121729;27;20073;-76
2022/04/01 07:20:29;;;;;;;10.68;6.40;;;;;;;-0.82;100.00;100726.78;5095343;28;20249;-75
2022/04/01 07:22:55;;;;;;;10.45;6.28;;;;;;;-0.74;100.00;100709.88;5113391;27;20084;-76
2022/04/01 07:25:21;;;;;;;10.00;5.53;;;;;;;-0.75;100.00;100718.38;5122108;27;20035;-76
2022/04/01 07:27:47;;;;;;;10.40;6.75;;;;;;;-0.85;100.00;100730.94;5121841;27;20470;-76
2022/04/01 07:30:12;;;;;;;9.27;6.80;;;;;;;-0.85;100.00;100730.94;5118381;27;20027;-75
2022/04/01 07:32:40;;;;;;;10.13;6.55;;;;;;;-0.83;100.00;100737.84;5118360;27;20029;-76
2022/04/01 07:35:09;;;;;;;14.00;7.03;;;;;;;-0.79;100.00;100742.19;5112993;28;20492;-76
2022/04/01 07:37:34;;;;;;;9.38;6.63;;;;;;;-0.77;100.00;100745.66;5118876;27;20035;-76
2022/04/01 07:40:00;;;;;;;8.57;6.20;;;;;;;-0.75;100.00;100759.34;5115186;27;20026;-76
2022/04/01 07:42:27;;;;;;;8.98;6.25;;;;;;;-0.71;100.00;100763.69;5112092;28;20073;-76
2022/04/01 07:44:54;;;;;;;10.93;6.47;;;;;;;-0.70;100.00;100762.00;5114413;27;20020;-76
2022/04/01 07:47:21;;;;;;;11.93;6.90;;;;;;;-0.74;100.00;100763.63;5130170;27;20028;-76
2022/04/01 07:49:46;;;;;;;9.50;6.20;;;;;;;-0.66;100.00;100773.16;5126268;27;20459;-75
2022/04/01 07:52:13;;;;;;;9.35;6.28;;;;;;;-0.71;100.00;100773.94;5112726;27;20107;-75
2022/04/01 07:54:40;;;;;;;10.07;5.88;;;;;;;-0.69;100.00;100767.97;5111549;28;20031;-75
2022/04/01 07:57:07;;;;;;;12.38;6.05;;;;;;;-0.69;100.00;100779.06;5115953;27;20023;-76
2022/04/01 07:59:33;;;;;;;10.60;5.95;;;;;;;-0.68;100.00;100775.69;5116555;27;20038;-75
2022/04/01 08:01:59;;;;;;;8.95;5.95;;;;;;;-0.67;100.00;100781.69;5112937;27;20020;-76
2022/04/01 08:04:27;;;;;;;8.63;6.03;;;;;;;-0.68;100.00;100780.81;5116803;27;20103;-76
2022/04/01 08:06:53;;;;;;;7.88;6.15;;;;;;;-0.69;100.00;100783.34;5126725;27;20035;-76
2022/04/01 08:09:19;;;;;;;13.00;6.32;;;;;;;-0.70;100.00;100795.28;5117506;27;20023;-76
2022/04/01 08:11:44;;;;;;;8.27;5.80;;;;;;;-0.73;100.00;100785.81;5127293;27;20454;-76
2022/04/01 08:14:09;;;;;;;12.93;6.70;;;;;;;-0.69;100.00;100793.56;5132108;27;20035;-76
2022/04/01 08:16:34;;;;;;;8.38;5.45;;;;;;;-0.64;100.00;100786.88;5132525;27;20035;-76
2022/04/01 08:19:00;;;;;;;9.00;5.93;;;;;;;-0.62;100.00;100810.78;5124809;27;20092;-76
2022/04/01 08:21:26;;;;;;;9.40;6.10;;;;;;;-0.61;100.00;100809.97;5123890;27;20067;-76
2022/04/01 08:23:51;;;;;;;9.55;5.70;;;;;;;-0.66;100.00;100807.31;5115475;27;20034;-76
2022/04/01 08:26:17;;;;;;;9.77;5.82;;;;;;;-0.62;100.00;100806.56;5111832;28;20023;-77
2022/04/01 08:28:42;;;;;;;10.20;4.05;;;;;;;-0.58;100.00;100822.84;5112101;28;20023;-76
2022/04/01 08:31:09;;;;;;;8.82;5.95;;;;;;;-0.59;100.00;100815.97;5112037;28;20035;-76
2022/04/01 08:33:34;;;;;;;9.95;5.40;;;;;;;-0.56;100.00;100828.84;5115352;28;20031;-76
2022/04/01 08:36:00;;;;;;;10.45;5.70;;;;;;;-0.55;100.00;100828.91;5110701;28;20482;-76
2022/04/01 08:38:25;;;;;;;8.82;5.90;;;;;;;-0.47;100.00;100834.19;5111719;28;20102;-76
2022/04/01 08:40:51;;;;;;;8.00;5.22;;;;;;;-0.54;100.00;100840.00;5118627;28;20035;-76
2022/04/01 08:43:26;;;;;;;10.98;5.70;;;;;;;-0.52;100.00;100851.16;5116822;27;20382;-76
2022/04/01 08:45:52;;;;;;;9.98;6.15;;;;;;;-0.46;100.00;100853.81;5110184;28;20031;-76
2022/04/01 08:48:17;;;;;;;7.18;5.07;;;;;;;-0.47;100.00;100849.53;5098791;28;20051;-76
2022/04/01 08:50:42;;;;;;;7.75;5.22;;;;;;;-0.43;100.00;100861.56;5097771;28;20475;-76
2022/04/01 08:53:08;;;;;;;9.65;5.63;;;;;;;-0.47;100.00;100858.09;5104269;28;20038;-76
2022/04/01 08:55:33;;;;;;;6.10;4.43;;;;;;;-0.44;100.00;100870.09;5110222;28;20467;-75
2022/04/01 08:57:58;;;;;;;6.60;4.78;;;;;;;-0.39;100.00;100859.94;5109937;28;20032;-76
2022/04/01 09:00:24;;;;;;;6.43;3.88;;;;;;;-0.37;100.00;100874.53;5111458;28;20032;-76
2022/04/01 09:02:58;;;;;;;5.70;3.78;;;;;;;-0.37;99.41;100869.41;5108189;28;20035;-76
2022/04/01 09:05:24;;;;;;;6.35;4.00;;;;;;;-0.34;99.55;100872.03;5111603;28;20074;-76
2022/04/01 09:08:01;;;;;;;5.90;4.45;;;;;;;-0.23;98.22;100882.50;5103170;28;20534;-76
2022/04/01 09:10:26;;;;;;;5.13;3.50;;;;;;;-0.15;98.42;100880.13;5100459;28;20387;-76
2022/04/01 09:12:52;;;;;;;8.05;4.13;;;;;;;-0.05;99.76;100882.88;5098162;27;20032;-76
2022/04/01 09:15:19;;;;;;;6.68;4.25;;;;;;;0.07;98.57;100895.09;5107907;28;20429;-76
2022/04/01 09:17:46;;;;;;;7.35;4.00;;;;;;;0.15;98.19;100890.09;5101965;28;20765;-75
2022/04/01 09:20:14;;;;;;;9.10;4.13;;;;;;;0.21;98.04;100885.97;5103980;28;20024;-75
2022/04/01 09:22:40;;;;;;;8.68;4.07;;;;;;;0.29;97.07;100898.06;5108569;28;20031;-76
2022/04/01 09:25:13;;;;;;;9.13;4.22;;;;;;;0.29;97.20;100896.34;5103432;28;20028;-77
2022/04/01 09:27:46;;;;;;;23.92;10.52;;;;;;;0.42;97.87;100897.47;5093624;28;20028;-77
2022/04/01 09:30:18;;;;;;;12.03;6.47;;;;;;;0.59;97.89;100897.75;5111028;28;20467;-77
2022/04/01 09:32:46;;;;;;;6.20;3.63;;;;;;;0.64;94.73;100902.16;5105476;27;20693;-77
2022/04/01 09:35:13;;;;;;;7.68;4.15;;;;;;;0.65;94.69;100905.56;5112037;27;20034;-76
2022/04/01 09:37:47;;;;;;;6.82;3.85;;;;;;;0.71;95.56;100905.69;5101313;28;20028;-76
2022/04/01 09:40:14;;;;;;;5.32;3.30;;;;;;;0.76;94.61;100908.34;5114600;27;20026;-76
2022/04/01 09:42:46;;;;;;;8.93;3.33;;;;;;;0.77;93.69;100910.94;5094654;28;20093;-76
2022/04/01 09:45:15;;;;;;;7.38;3.53;;;;;;;0.85;94.98;100911.06;5094025;28;20485;-76
2022/04/01 09:47:41;;;;;;;7.28;3.97;;;;;;;0.94;94.60;100912.06;5103244;27;20036;-76
2022/04/01 09:50:15;;;;;;;5.65;3.30;;;;;;;1.00;94.01;100916.47;5114371;28;20152;-76
2022/04/01 09:52:41;;;;;;;5.13;3.65;;;;;;;1.04;95.28;100913.09;5103099;28;20043;-76
2022/04/01 09:55:07;;;;;;;9.25;5.18;;;;;;;1.12;93.98;100915.81;5097927;28;20085;-76
2022/04/01 09:57:34;;;;;;;4.53;3.00;;;;;;;1.12;92.87;100914.09;5103131;28;20475;-76
2022/04/01 09:59:59;;;;;;;5.38;3.65;;;;;;;1.07;92.10;100917.41;5113711;28;20072;-76
2022/04/01 10:02:26;;;;;;;6.55;3.72;;;;;;;1.06;93.86;100913.13;5113488;28;20039;-76
2022/04/01 10:04:53;;;;;;;6.80;3.10;;;;;;;1.04;91.85;100909.66;5114207;28;20103;-76
2022/04/01 10:07:20;;;;;;;4.80;2.50;;;;;;;1.02;90.51;100913.94;5113367;28;20039;-76
2022/04/01 10:09:47;;;;;;;5.03;3.63;;;;;;;0.96;92.95;100916.38;5106506;27;20115;-76
2022/04/01 10:12:14;;;;;;;6.63;2.80;;;;;;;1.00;91.93;100907.91;5102252;27;20054;-76
2022/04/01 10:14:40;;;;;;;8.63;2.80;;;;;;;1.03;92.23;100916.50;5131196;27;20071;-76
2022/04/01 10:17:14;;;;;;;4.78;2.85;;;;;;;1.04;93.41;100920.78;5109665;28;20035;-76
2022/04/01 10:19:42;;;;;;;6.22;2.72;;;;;;;1.04;92.53;100920.78;5103015;28;20028;-76
2022/04/01 10:22:07;;;;;;;5.60;3.15;;;;;;;1.04;92.74;100920.78;5103661;28;20500;-76
2022/04/01 10:24:47;;;;;;;5.88;3.10;;;;;;;1.05;92.57;100919.13;5100945;27;20020;-76
2022/04/01 10:27:25;;;;;;;4.72;2.40;;;;;;;1.09;92.35;100926.03;5112687;28;20412;-77
2022/04/01 10:29:55;;;;;;;5.68;2.72;;;;;;;1.03;92.86;100924.22;5113915;28;20028;-76
2022/04/01 10:32:28;;;;;;;4.97;3.13;;;;;;;1.14;93.44;100929.50;5112065;27;20015;-76
2022/04/01 10:34:58;;;;;;;5.85;2.85;;;;;;;1.16;93.04;100932.97;5121680;27;20027;-76
2022/04/01 10:37:25;;;;;;;6.32;3.28;;;;;;;1.14;93.17;100930.41;5104536;28;20031;-76
2022/04/01 10:39:58;;;;;;;5.35;2.80;;;;;;;1.16;93.03;100927.84;5109215;28;20069;-76
2022/04/01 10:42:32;;;;;;;6.45;3.67;;;;;;;1.10;93.53;100923.47;5118825;27;20075;-76
2022/04/01 10:45:01;;;;;;;4.43;2.90;;;;;;;1.11;91.38;100932.91;5099890;28;20116;-76
2022/04/01 10:53:41;;;;;;;4.90;3.20;;;;;;;1.17;91.77;100939.84;5105122;28;20116;-76
2022/04/01 10:56:21;;;;;;;5.75;3.22;;;;;;;1.14;92.48;100939.78;5109244;28;20034;-76
2022/04/01 10:59:12;;;;;;;7.75;3.03;;;;;;;1.10;92.13;100949.16;5111101;28;20471;-75
2022/04/01 11:01:53;;;;;;;7.85;4.45;;;;;;;1.11;91.83;100945.75;5094111;28;20107;-75
2022/04/01 11:04:19;;;;;;;7.57;4.40;;;;;;;1.14;92.05;100943.25;5112226;28;20044;-76
2022/04/01 11:06:58;;;;;;;7.85;4.60;;;;;;;1.16;91.71;100953.53;5109865;28;20034;-75
2022/04/01 11:09:38;;;;;;;6.22;3.70;;;;;;;1.16;91.53;100946.69;5111603;28;20043;-76
2022/04/01 11:12:31;;;;;;;10.32;4.00;;;;;;;1.13;91.20;100946.63;5094089;27;20066;-76
2022/04/01 11:15:07;;;;;;;6.72;4.82;;;;;;;1.17;93.60;100957.81;5075346;28;20494;-76
2022/04/01 11:17:41;;;;;;;6.00;4.20;;;;;;;1.17;90.39;100953.53;5109448;28;20036;-76
2022/04/01 11:20:11;;;;;;;9.32;4.40;;;;;;;1.22;89.75;100963.06;5113036;28;20031;-76
2022/04/01 11:22:39;;;;;;;10.02;4.68;;;;;;;1.23;89.48;100954.50;5110659;27;20057;-76
2022/04/01 11:25:06;;;;;;;9.13;6.32;;;;;;;1.24;90.95;100964.78;5108978;27;20104;-76
2022/04/01 11:27:33;;;;;;;11.27;5.72;;;;;;;1.21;90.07;100967.31;5123528;27;20038;-76
2022/04/01 11:30:09;;;;;;;9.27;5.07;;;;;;;1.26;89.71;100960.53;5114515;27;20027;-76
2022/04/01 11:32:36;;;;;;;6.82;4.60;;;;;;;1.33;89.70;100976.91;5127099;27;20489;-76